createdAt,value
2022-08-17T00:00:56.672Z,101038.00
2022-08-17T00:06:23.820Z,101034.16
2022-08-17T00:12:42.278Z,101039.38
2022-08-17T00:17:32.598Z,101032.09
2022-08-17T00:23:04.134Z,101054.91
2022-08-17T00:28:27.620Z,101044.69
2022-08-17T00:33:57.809Z,101041.19
2022-08-17T00:39:20.887Z,101041.91
2022-08-17T00:44:44.021Z,101020.94
2022-08-17T00:50:12.803Z,101035.44
2022-08-17T00:55:36.524Z,101022.47
2022-08-17T01:01:01.527Z,101029.19
2022-08-17T01:06:27.099Z,101009.25
2022-08-17T01:11:52.364Z,101005.22
2022-08-17T01:17:15.609Z,100999.06
2022-08-17T01:22:40.340Z,101012.88
2022-08-17T01:28:03.911Z,101008.19
2022-08-17T01:33:27.102Z,101007.84
2022-08-17T01:38:51.667Z,101011.84
2022-08-17T01:44:15.429Z,101003.13
2022-08-17T01:49:38.692Z,101013.75
2022-08-17T01:55:05.424Z,101013.84
2022-08-17T02:00:59.610Z,101018.75
2022-08-17T02:06:27.219Z,101001.03
2022-08-17T02:11:52.843Z,101017.88
2022-08-17T02:17:17.312Z,101015.63
2022-08-17T02:22:42.128Z,101016.28
2022-08-17T02:28:06.794Z,101012.16
2022-08-17T02:33:42.716Z,101021.72
2022-08-17T02:39:08.904Z,101013.97
2022-08-17T02:44:40.846Z,101020.84
2022-08-17T02:56:14.936Z,101047.03
2022-08-17T03:01:39.541Z,101085.09
2022-08-17T03:07:02.766Z,101102.41
2022-08-17T03:12:25.934Z,101126.03
2022-08-17T03:18:02.311Z,101159.81
2022-08-17T03:23:47.166Z,101143.53
2022-08-17T03:35:54.407Z,101178.81
2022-08-17T03:41:17.619Z,101156.69
2022-08-17T03:59:28.412Z,101158.06
2022-08-17T04:05:27.341Z,101158.31
2022-08-17T04:10:51.853Z,101174.56
2022-08-17T04:16:14.947Z,101163.06
2022-08-17T04:21:38.077Z,101154.44
2022-08-17T04:27:02.500Z,101139.28
2022-08-17T04:33:05.221Z,101117.13
2022-08-17T04:38:12.235Z,101139.47
2022-08-17T04:43:37.647Z,101140.09
2022-08-17T04:49:02.730Z,101139.66
2022-08-17T04:54:25.847Z,101146.34
2022-08-17T04:59:50.342Z,101128.53
2022-08-17T05:05:13.595Z,101128.72
2022-08-17T05:10:45.527Z,101137.94
2022-08-17T05:16:10.372Z,101142.84
2022-08-17T05:21:33.550Z,101126.69
2022-08-17T05:26:56.724Z,101109.34
2022-08-17T05:32:39.362Z,101108.75
2022-08-17T05:38:03.369Z,101104.06
2022-08-17T05:43:28.685Z,101118.66
2022-08-17T05:48:55.785Z,101142.59
2022-08-17T05:54:35.014Z,101151.53
2022-08-17T06:00:02.170Z,101109.81
2022-08-17T06:05:51.502Z,101102.78
2022-08-17T06:11:24.882Z,101112.53
2022-08-17T06:17:19.050Z,101117.66
2022-08-17T06:23:07.067Z,101107.53
2022-08-17T06:28:36.594Z,101115.81
2022-08-17T06:34:02.991Z,101128.44
2022-08-17T06:39:35.960Z,101156.16
2022-08-17T06:45:05.887Z,101176.69
2022-08-17T06:50:37.168Z,101194.53
2022-08-17T06:56:06.203Z,101194.72
2022-08-17T07:01:33.058Z,101192.63
2022-08-17T07:07:00.338Z,101164.09
2022-08-17T07:12:27.688Z,101177.13
2022-08-17T07:17:51.271Z,101192.53
2022-08-17T07:23:22.494Z,101201.22
2022-08-17T07:28:47.692Z,101217.66
2022-08-17T07:34:14.566Z,101233.75
2022-08-17T07:40:15.179Z,101235.47
2022-08-17T07:45:36.438Z,101234.69
2022-08-17T07:51:00.262Z,101214.50
2022-08-17T07:56:36.405Z,101206.19
2022-08-17T08:02:17.089Z,101200.78
2022-08-17T08:07:50.492Z,101213.16
2022-08-17T08:13:18.757Z,101202.44
2022-08-17T08:18:54.051Z,101178.75
2022-08-17T08:24:36.705Z,101193.06
2022-08-17T08:30:06.451Z,101198.16
2022-08-17T08:35:46.025Z,101197.66
2022-08-17T08:41:25.422Z,101210.84
2022-08-17T08:46:54.933Z,101205.88
2022-08-17T08:52:32.248Z,101211.03
2022-08-17T08:57:58.805Z,101206.84
2022-08-17T09:03:51.490Z,101195.81
2022-08-17T09:09:24.260Z,101170.81
2022-08-17T09:14:54.475Z,101190.16
2022-08-17T09:20:27.349Z,101188.22
2022-08-17T09:26:00.296Z,101193.94
2022-08-17T09:31:33.163Z,101208.28
2022-08-17T09:37:05.284Z,101200.22
2022-08-17T09:42:32.571Z,101210.00
2022-08-17T09:48:00.388Z,101206.13
2022-08-17T09:53:23.765Z,101216.16
2022-08-17T09:59:02.432Z,101225.81
2022-08-17T10:04:42.379Z,101219.78
2022-08-17T10:10:14.373Z,101201.84
2022-08-17T10:15:44.803Z,101161.38
2022-08-17T10:21:27.255Z,101196.09
2022-08-17T10:26:56.372Z,101200.38
2022-08-17T10:32:30.122Z,101211.81
2022-08-17T10:38:29.677Z,101243.44
2022-08-17T10:44:37.298Z,101228.69
2022-08-17T10:49:57.626Z,101272.75
2022-08-17T10:55:26.295Z,101274.34
2022-08-17T11:01:12.664Z,101175.88
2022-08-17T11:06:46.557Z,101240.25
2022-08-17T11:12:16.469Z,101209.91
2022-08-17T11:18:08.610Z,101198.59
2022-08-17T11:23:46.903Z,101223.56
2022-08-17T11:29:20.707Z,101220.09
2022-08-17T11:34:47.806Z,101213.28
2022-08-17T11:40:22.517Z,101226.19
2022-08-17T11:46:01.162Z,101233.22
2022-08-17T11:51:42.936Z,101254.47
2022-08-17T11:57:39.234Z,101282.78
2022-08-17T12:03:53.996Z,101237.97
2022-08-17T12:09:20.251Z,101319.13
2022-08-17T12:20:35.613Z,101315.38
2022-08-17T12:26:02.282Z,101311.00
2022-08-17T12:31:27.946Z,101325.00
2022-08-17T12:36:54.393Z,101329.66
2022-08-17T12:42:24.085Z,101318.25
2022-08-17T12:47:47.355Z,101320.69
2022-08-17T12:53:13.912Z,101329.97
2022-08-17T12:58:44.736Z,101334.63
2022-08-17T13:04:07.843Z,101324.47
2022-08-17T13:09:40.011Z,101307.06
2022-08-17T13:15:04.575Z,101222.34
2022-08-17T13:20:27.725Z,101286.63
2022-08-17T13:25:55.899Z,101272.84
2022-08-17T13:31:24.241Z,101274.97
2022-08-17T13:36:48.853Z,101274.16
2022-08-17T13:42:50.382Z,101275.03
2022-08-17T13:48:25.107Z,101278.47
2022-08-17T13:53:59.244Z,101230.66
2022-08-17T13:59:38.212Z,101246.38
2022-08-17T14:05:17.546Z,101235.78
2022-08-17T14:16:26.738Z,101228.44
2022-08-17T14:21:50.388Z,101206.66
2022-08-17T14:27:13.489Z,101218.91
2022-08-17T14:32:41.304Z,101207.72
2022-08-17T14:38:04.551Z,101214.56
2022-08-17T14:43:27.677Z,101216.75
2022-08-17T14:48:57.219Z,101214.56
2022-08-17T14:54:33.566Z,101219.88
2022-08-17T14:59:57.763Z,101218.63
2022-08-17T15:05:23.403Z,101198.22
2022-08-17T15:10:50.005Z,101213.47
2022-08-17T15:16:14.278Z,101213.00
2022-08-17T15:21:39.781Z,101207.41
2022-08-17T15:27:02.939Z,101205.34
2022-08-17T15:32:27.451Z,101203.53
2022-08-17T15:37:52.046Z,101192.50
2022-08-17T15:43:17.785Z,101178.94
2022-08-17T15:48:42.971Z,101168.72
2022-08-17T15:54:19.256Z,101197.75
2022-08-17T15:59:46.369Z,101203.91
2022-08-17T16:05:17.448Z,101210.09
2022-08-17T16:10:46.849Z,101205.72
2022-08-17T16:16:11.999Z,101195.56
2022-08-17T16:21:42.379Z,101200.63
2022-08-17T16:27:12.533Z,101215.50
2022-08-17T16:32:36.185Z,101220.06
2022-08-17T16:37:59.430Z,101222.91
2022-08-17T16:43:23.874Z,101223.94
2022-08-17T16:48:47.087Z,101223.78
2022-08-17T16:54:12.631Z,101235.34
2022-08-17T16:59:42.736Z,101239.13
2022-08-17T17:05:13.092Z,101239.31
2022-08-17T17:10:40.090Z,101236.44
2022-08-17T17:16:12.026Z,101229.72
2022-08-17T17:21:40.306Z,101241.50
2022-08-17T17:27:24.444Z,101231.84
2022-08-17T17:32:52.016Z,101238.34
2022-08-17T17:38:23.081Z,101241.00
2022-08-17T17:44:01.687Z,101248.28
2022-08-17T17:49:32.445Z,101255.41
2022-08-17T17:55:05.370Z,101260.88
2022-08-17T18:00:34.649Z,101262.41
2022-08-17T18:06:18.651Z,101269.53
2022-08-17T18:12:08.746Z,101277.59
2022-08-17T18:17:33.417Z,101278.75
2022-08-17T18:22:58.002Z,101283.31
2022-08-17T18:28:26.098Z,101280.81
2022-08-17T18:33:52.477Z,101286.03
2022-08-17T18:39:19.346Z,101271.25
2022-08-17T18:44:44.506Z,101288.56
2022-08-17T18:50:22.576Z,101280.59
2022-08-17T18:55:47.088Z,101291.13
2022-08-17T19:01:19.447Z,101288.56
2022-08-17T19:06:42.652Z,101287.09
2022-08-17T19:12:10.656Z,101291.63
2022-08-17T19:17:39.007Z,101288.69
2022-08-17T19:23:08.448Z,101285.34
2022-08-17T19:28:38.430Z,101310.63
2022-08-17T19:34:04.297Z,101304.13
2022-08-17T19:39:38.172Z,101309.19
2022-08-17T19:45:05.406Z,101326.47
2022-08-17T19:50:38.266Z,101329.91
2022-08-17T19:56:04.703Z,101336.59
2022-08-17T20:01:35.434Z,101349.13
2022-08-17T20:07:02.189Z,101344.56
2022-08-17T20:12:28.969Z,101341.97
2022-08-17T20:17:53.923Z,101344.31
2022-08-17T20:23:30.462Z,101331.31
2022-08-17T20:29:09.450Z,101327.47
2022-08-17T20:34:37.490Z,101324.75
2022-08-17T20:40:28.548Z,101313.13
2022-08-17T20:46:13.192Z,101318.59
2022-08-17T20:51:43.041Z,101322.03
2022-08-17T20:57:47.327Z,101310.56
2022-08-17T21:03:51.177Z,101308.06
2022-08-17T21:09:30.194Z,101321.31
2022-08-17T21:14:59.742Z,101330.53
2022-08-17T21:20:32.306Z,101326.06
2022-08-17T21:26:12.904Z,101308.31
2022-08-17T21:31:39.160Z,101326.00
2022-08-17T21:37:29.707Z,101319.91
2022-08-17T21:42:58.080Z,101327.06
2022-08-17T21:48:22.693Z,101330.94
2022-08-17T21:53:47.718Z,101331.09
2022-08-17T21:59:25.718Z,101344.19
2022-08-17T22:04:58.204Z,101352.31
2022-08-17T22:10:30.462Z,101351.53
2022-08-17T22:16:15.390Z,101363.84
2022-08-17T22:22:03.594Z,101370.00
2022-08-17T22:27:46.930Z,101373.94
2022-08-17T22:33:39.627Z,101348.25
2022-08-17T22:39:40.367Z,101374.91
2022-08-17T22:45:03.534Z,101372.03
2022-08-17T22:50:30.451Z,101294.13
2022-08-17T22:56:28.186Z,101350.38
2022-08-17T23:02:12.497Z,101370.44
2022-08-17T23:07:37.277Z,101364.56
2022-08-17T23:13:01.310Z,101368.50
2022-08-17T23:18:27.346Z,101368.41
2022-08-17T23:23:52.019Z,101360.69
2022-08-17T23:29:15.147Z,101374.28
2022-08-17T23:34:38.917Z,101368.28
2022-08-17T23:40:03.501Z,101373.75
2022-08-17T23:45:26.842Z,101363.91
2022-08-17T23:50:51.644Z,101367.50
2022-08-17T23:56:17.702Z,101372.72
